createdAt,value
2019-03-19T00:01:39.741Z,4.70
2019-03-19T00:04:08.059Z,4.30
2019-03-19T00:06:36.277Z,4.70
2019-03-19T00:09:05.988Z,4.60
2019-03-19T00:11:34.199Z,4.37
2019-03-19T00:14:02.431Z,4.00
2019-03-19T00:16:30.680Z,4.80
2019-03-19T00:18:58.960Z,3.90
2019-03-19T00:21:27.163Z,4.57
2019-03-19T00:23:55.404Z,4.60
2019-03-19T00:26:23.685Z,4.37
2019-03-19T00:28:51.924Z,4.63
2019-03-19T00:31:20.460Z,4.03
2019-03-19T00:33:48.704Z,5.30
2019-03-19T00:36:17.628Z,4.77
2019-03-19T00:38:45.965Z,4.40
2019-03-19T00:41:14.250Z,4.13
2019-03-19T00:43:42.484Z,4.37
2019-03-19T00:46:10.694Z,4.50
2019-03-19T00:48:39.263Z,3.73
2019-03-19T00:51:07.797Z,4.00
2019-03-19T00:53:36.045Z,4.70
2019-03-19T00:56:04.349Z,4.97
2019-03-19T00:58:32.913Z,4.43
2019-03-19T01:01:01.452Z,4.30
2019-03-19T01:03:29.993Z,4.20
2019-03-19T01:05:58.235Z,4.37
2019-03-19T01:08:26.448Z,4.20
2019-03-19T01:10:54.692Z,5.77
2019-03-19T01:13:22.904Z,6.10
2019-03-19T01:15:51.143Z,5.33
2019-03-19T01:18:19.350Z,4.40
2019-03-19T01:20:47.595Z,4.40
2019-03-19T01:23:15.800Z,4.03
2019-03-19T01:25:55.192Z,4.37
2019-03-19T01:28:14.296Z,4.27
2019-03-19T01:30:42.876Z,4.43
2019-03-19T01:33:11.084Z,4.60
2019-03-19T01:35:39.658Z,4.80
2019-03-19T01:38:07.872Z,4.67
2019-03-19T01:40:36.112Z,4.60
2019-03-19T01:43:04.781Z,5.63
2019-03-19T01:45:33.037Z,6.33
2019-03-19T01:48:01.248Z,5.47
2019-03-19T01:50:29.551Z,5.03
2019-03-19T01:52:57.764Z,4.97
2019-03-19T01:55:26.009Z,5.03
2019-03-19T01:57:54.224Z,5.17
2019-03-19T02:00:22.460Z,5.53
2019-03-19T02:02:50.704Z,5.40
2019-03-19T02:05:19.016Z,5.07
2019-03-19T02:07:47.555Z,5.13
2019-03-19T02:10:15.799Z,5.17
2019-03-19T02:12:44.016Z,5.17
2019-03-19T02:15:19.929Z,5.47
2019-03-19T02:17:48.156Z,4.80
2019-03-19T02:20:16.933Z,5.70
2019-03-19T02:22:45.546Z,5.37
2019-03-19T02:25:13.821Z,5.17
2019-03-19T02:27:42.136Z,5.73
2019-03-19T02:30:14.584Z,5.00
2019-03-19T02:32:42.816Z,5.23
2019-03-19T02:35:11.484Z,5.13
2019-03-19T02:37:39.789Z,5.30
2019-03-19T02:40:11.823Z,5.37
2019-03-19T02:42:40.051Z,5.53
2019-03-19T02:45:12.041Z,5.97
2019-03-19T02:47:40.330Z,5.40
2019-03-19T02:50:09.926Z,5.80
2019-03-19T02:52:38.160Z,5.23
2019-03-19T02:55:07.849Z,5.63
2019-03-19T02:57:36.091Z,5.03
2019-03-19T03:00:11.561Z,5.73
2019-03-19T03:02:39.813Z,5.47
2019-03-19T03:05:09.567Z,5.27
2019-03-19T03:07:37.808Z,5.23
2019-03-19T03:10:07.600Z,6.10
2019-03-19T03:12:35.826Z,5.80
2019-03-19T03:15:05.015Z,6.10
2019-03-19T03:17:33.649Z,6.33
2019-03-19T03:20:01.869Z,5.73
2019-03-19T03:22:30.108Z,5.80
2019-03-19T03:24:58.332Z,5.40
2019-03-19T03:27:26.558Z,5.87
2019-03-19T03:29:54.776Z,5.90
2019-03-19T03:32:23.102Z,5.83
2019-03-19T03:34:51.295Z,5.67
2019-03-19T03:37:19.735Z,6.03
2019-03-19T03:39:47.950Z,5.40
2019-03-19T03:42:16.170Z,6.13
2019-03-19T03:44:44.417Z,5.73
2019-03-19T03:47:12.629Z,6.00
2019-03-19T03:49:40.877Z,6.27
2019-03-19T03:52:09.090Z,5.97
2019-03-19T03:54:37.324Z,6.23
2019-03-19T03:57:05.533Z,6.67
2019-03-19T03:59:34.109Z,7.20
2019-03-19T04:02:02.311Z,6.63
2019-03-19T04:04:30.558Z,6.50
2019-03-19T04:06:58.768Z,6.40
2019-03-19T04:09:27.009Z,7.00
2019-03-19T04:11:55.221Z,6.90
2019-03-19T04:14:23.520Z,7.57
2019-03-19T04:16:51.752Z,6.97
2019-03-19T04:19:19.976Z,7.53
2019-03-19T04:21:48.193Z,6.97
2019-03-19T04:24:16.497Z,7.10
2019-03-19T04:26:44.781Z,7.20
2019-03-19T04:29:13.098Z,8.20
2019-03-19T04:31:41.371Z,8.73
2019-03-19T04:34:09.618Z,8.90
2019-03-19T04:36:37.833Z,9.47
2019-03-19T04:39:07.612Z,8.37
2019-03-19T04:41:35.824Z,8.60
2019-03-19T04:44:04.161Z,8.00
2019-03-19T04:46:32.365Z,8.73
2019-03-19T04:49:00.577Z,8.20
2019-03-19T04:51:28.815Z,8.70
2019-03-19T04:53:57.023Z,7.53
2019-03-19T04:56:25.284Z,8.50
2019-03-19T04:58:53.824Z,7.77
2019-03-19T05:01:22.069Z,7.87
2019-03-19T05:03:50.280Z,7.70
2019-03-19T05:06:18.528Z,7.70
2019-03-19T05:08:46.748Z,8.07
2019-03-19T05:11:14.985Z,8.80
2019-03-19T05:13:43.520Z,8.63
2019-03-19T05:16:12.084Z,9.13
2019-03-19T05:18:40.696Z,9.30
2019-03-19T05:21:09.018Z,8.57
2019-03-19T05:23:37.219Z,9.47
2019-03-19T05:26:05.455Z,8.73
2019-03-19T05:28:34.030Z,9.43
2019-03-19T05:31:02.252Z,8.50
2019-03-19T05:33:30.533Z,8.67
2019-03-19T05:35:58.780Z,9.70
2019-03-19T05:38:26.992Z,9.73
2019-03-19T05:40:55.560Z,8.63
2019-03-19T05:43:23.771Z,8.50
2019-03-19T05:45:52.022Z,8.17
2019-03-19T05:48:20.174Z,9.17
2019-03-19T05:50:48.413Z,9.27
2019-03-19T05:53:16.632Z,9.13
2019-03-19T05:55:44.872Z,9.67
2019-03-19T05:58:13.083Z,10.43
2019-03-19T06:00:41.328Z,11.30
2019-03-19T06:03:09.548Z,12.37
2019-03-19T06:05:37.772Z,11.47
2019-03-19T06:08:08.181Z,11.40
2019-03-19T06:10:36.454Z,11.73
2019-03-19T06:13:04.740Z,11.77
2019-03-19T06:15:32.957Z,9.23
2019-03-19T06:18:01.202Z,10.60
2019-03-19T06:20:29.417Z,9.87
2019-03-19T06:22:57.664Z,11.07
2019-03-19T06:25:25.890Z,10.23
2019-03-19T06:28:00.376Z,10.83
2019-03-19T06:30:25.066Z,9.90
2019-03-19T06:32:53.321Z,10.67
2019-03-19T06:35:21.614Z,9.90
2019-03-19T06:37:49.864Z,10.60
2019-03-19T06:40:18.752Z,10.20
2019-03-19T06:42:46.995Z,11.97
2019-03-19T06:45:16.798Z,11.03
2019-03-19T06:47:45.164Z,11.77
2019-03-19T06:50:14.052Z,10.70
2019-03-19T06:52:42.295Z,8.77
2019-03-19T06:55:11.485Z,10.17
2019-03-19T06:57:39.901Z,10.50
2019-03-19T07:00:09.657Z,11.43
2019-03-19T07:02:37.900Z,7.23
2019-03-19T07:05:07.694Z,10.97
2019-03-19T07:07:35.939Z,9.50
2019-03-19T07:10:05.696Z,10.13
2019-03-19T07:12:33.947Z,11.70
2019-03-19T07:15:02.165Z,10.13
2019-03-19T07:17:30.489Z,11.30
2019-03-19T07:19:58.703Z,11.90
2019-03-19T07:22:26.947Z,12.70
2019-03-19T07:24:55.165Z,11.50
2019-03-19T07:27:23.413Z,12.10
2019-03-19T07:29:51.892Z,13.07
2019-03-19T07:32:20.116Z,12.10
2019-03-19T07:34:48.367Z,14.33
2019-03-19T07:37:16.617Z,11.13
2019-03-19T07:39:44.832Z,11.43
2019-03-19T07:42:13.080Z,11.27
2019-03-19T07:44:41.292Z,12.60
2019-03-19T07:47:09.608Z,11.77
2019-03-19T07:49:37.861Z,11.63
2019-03-19T07:52:06.404Z,11.90
2019-03-19T07:54:34.972Z,11.07
2019-03-19T07:57:03.188Z,12.00
2019-03-19T07:59:31.757Z,12.00
2019-03-19T08:01:59.981Z,11.47
2019-03-19T08:04:28.224Z,10.93
2019-03-19T08:06:56.773Z,9.47
2019-03-19T08:09:25.381Z,10.97
2019-03-19T08:11:54.059Z,10.63
2019-03-19T08:14:22.624Z,11.17
2019-03-19T08:16:53.120Z,10.80
2019-03-19T08:19:21.064Z,9.17
2019-03-19T08:21:49.292Z,10.40
2019-03-19T08:24:17.543Z,10.43
2019-03-19T08:26:45.764Z,11.33
2019-03-19T08:29:14.319Z,9.40
2019-03-19T08:31:42.855Z,9.10
2019-03-19T08:34:11.427Z,9.70
2019-03-19T08:36:39.959Z,9.97
2019-03-19T08:39:08.204Z,8.53
2019-03-19T08:41:36.744Z,8.63
2019-03-19T08:44:05.284Z,9.00
2019-03-19T08:46:33.856Z,8.87
2019-03-19T08:49:02.399Z,8.03
2019-03-19T08:51:30.963Z,8.60
2019-03-19T08:53:59.177Z,8.90
2019-03-19T08:56:27.746Z,9.10
2019-03-19T08:59:05.567Z,8.83
2019-03-19T09:01:26.516Z,8.77
2019-03-19T09:03:55.056Z,8.20
2019-03-19T09:06:23.625Z,8.97
2019-03-19T09:08:51.836Z,8.03
2019-03-19T09:11:20.073Z,7.40
2019-03-19T09:13:48.287Z,7.70
2019-03-19T09:16:16.852Z,8.03
2019-03-19T09:18:45.460Z,6.67
2019-03-19T09:21:14.032Z,6.50
2019-03-19T09:23:42.747Z,7.23
2019-03-19T09:26:11.313Z,6.53
2019-03-19T09:28:39.886Z,6.50
2019-03-19T09:31:08.095Z,5.63
2019-03-19T09:33:36.666Z,6.63
2019-03-19T09:36:05.291Z,6.03
2019-03-19T09:38:33.838Z,6.90
2019-03-19T09:41:02.404Z,6.40
2019-03-19T09:43:30.945Z,5.80
2019-03-19T09:45:59.517Z,5.83
2019-03-19T09:48:28.338Z,6.10
2019-03-19T09:50:57.022Z,5.90
2019-03-19T09:53:25.634Z,5.03
2019-03-19T09:55:54.775Z,5.53
2019-03-19T09:58:23.307Z,5.00
2019-03-19T10:00:52.757Z,4.37
2019-03-19T10:03:21.287Z,4.03
2019-03-19T10:05:49.854Z,5.77
2019-03-19T10:08:18.398Z,5.70
2019-03-19T10:10:47.024Z,4.53
2019-03-19T10:13:15.591Z,4.77
2019-03-19T10:15:44.132Z,5.33
2019-03-19T10:18:12.368Z,4.33
2019-03-19T10:20:40.907Z,4.90
2019-03-19T10:23:09.149Z,4.93
2019-03-19T10:25:38.194Z,4.93
2019-03-19T10:28:06.798Z,4.73
2019-03-19T10:30:35.476Z,4.40
2019-03-19T10:33:04.124Z,4.40
2019-03-19T10:35:32.648Z,4.47
2019-03-19T10:38:01.212Z,3.60
2019-03-19T10:40:29.425Z,3.53
2019-03-19T10:42:57.667Z,9.73
2019-03-19T10:45:26.212Z,15.87
2019-03-19T10:47:54.862Z,7.30
2019-03-19T10:50:24.336Z,3.20
2019-03-19T10:52:52.976Z,3.70
2019-03-19T10:55:21.846Z,3.90
2019-03-19T10:57:50.412Z,4.10
2019-03-19T11:00:23.733Z,4.10
2019-03-19T11:02:52.841Z,4.43
2019-03-19T11:05:22.417Z,4.47
2019-03-19T11:07:51.322Z,3.93
2019-03-19T11:10:19.700Z,3.60
2019-03-19T11:12:48.336Z,4.20
2019-03-19T11:15:23.578Z,3.73
2019-03-19T11:17:52.215Z,3.17
2019-03-19T11:20:20.593Z,3.33
2019-03-19T11:22:49.208Z,2.87
2019-03-19T11:25:22.838Z,3.43
2019-03-19T11:27:51.541Z,3.03
2019-03-19T11:30:24.344Z,3.30
2019-03-19T11:32:53.064Z,3.80
2019-03-19T11:35:21.921Z,3.70
2019-03-19T11:37:50.498Z,3.47
2019-03-19T11:40:20.201Z,3.23
2019-03-19T11:42:49.077Z,3.20
2019-03-19T11:45:19.081Z,3.57
2019-03-19T11:47:47.687Z,3.13
2019-03-19T11:50:27.072Z,3.67
2019-03-19T11:52:55.641Z,3.60
2019-03-19T11:55:24.176Z,3.87
2019-03-19T11:57:52.919Z,3.83
2019-03-19T12:00:29.845Z,3.50
2019-03-19T12:02:58.770Z,3.60
2019-03-19T12:05:27.307Z,3.33
2019-03-19T12:07:55.591Z,3.83
2019-03-19T12:10:23.827Z,3.40
2019-03-19T12:12:52.428Z,3.43
2019-03-19T12:15:21.065Z,3.20
2019-03-19T12:17:49.600Z,3.57
2019-03-19T12:20:20.555Z,3.90
2019-03-19T12:22:48.093Z,3.70
2019-03-19T12:25:16.655Z,3.23
2019-03-19T12:27:45.192Z,3.43
2019-03-19T12:30:22.344Z,2.40
2019-03-19T12:32:46.265Z,3.40
2019-03-19T12:35:16.574Z,3.37
2019-03-19T12:37:45.163Z,3.57
2019-03-19T12:40:21.788Z,3.70
2019-03-19T12:42:50.392Z,3.60
2019-03-19T12:45:23.238Z,3.00
2019-03-19T12:47:51.773Z,3.03
2019-03-19T12:50:21.486Z,2.20
2019-03-19T12:52:50.090Z,2.77
2019-03-19T12:55:18.729Z,3.53
2019-03-19T12:57:47.334Z,3.03
2019-03-19T13:00:17.738Z,3.40
2019-03-19T13:02:46.340Z,3.30
2019-03-19T13:05:14.973Z,3.47
2019-03-19T13:07:43.581Z,3.60
2019-03-19T13:10:16.752Z,2.73
2019-03-19T13:12:45.357Z,3.50
2019-03-19T13:15:19.393Z,3.17
2019-03-19T13:17:48.293Z,3.23
2019-03-19T13:20:20.562Z,2.67
2019-03-19T13:22:49.172Z,2.70
2019-03-19T13:25:26.869Z,3.27
2019-03-19T13:27:55.477Z,2.80
2019-03-19T13:30:28.867Z,2.30
2019-03-19T13:32:57.405Z,3.20
2019-03-19T13:35:25.936Z,2.33
2019-03-19T13:37:54.168Z,2.77
2019-03-19T13:40:22.781Z,2.80
2019-03-19T13:42:51.409Z,2.80
2019-03-19T13:45:23.030Z,2.80
2019-03-19T13:47:51.344Z,5.97
2019-03-19T13:50:20.720Z,3.37
2019-03-19T13:52:49.269Z,3.13
2019-03-19T13:55:20.881Z,2.27
2019-03-19T13:57:49.444Z,3.60
2019-03-19T14:00:18.030Z,4.90
2019-03-19T14:02:46.868Z,4.97
2019-03-19T14:05:15.951Z,6.03
2019-03-19T14:07:44.657Z,5.80
2019-03-19T14:10:15.029Z,2.60
2019-03-19T14:12:43.732Z,3.07
2019-03-19T14:15:14.876Z,3.00
2019-03-19T14:17:43.444Z,3.47
2019-03-19T14:20:13.192Z,3.90
2019-03-19T14:22:41.505Z,3.83
2019-03-19T14:25:11.475Z,3.83
2019-03-19T14:27:40.041Z,3.23
2019-03-19T14:30:11.648Z,3.27
2019-03-19T14:32:40.217Z,2.90
2019-03-19T14:35:09.410Z,3.10
2019-03-19T14:37:38.032Z,2.80
2019-03-19T14:40:09.785Z,2.87
2019-03-19T14:42:38.420Z,3.20
2019-03-19T14:45:08.991Z,2.93
2019-03-19T14:47:37.628Z,2.83
2019-03-19T14:50:11.989Z,2.63
2019-03-19T14:52:40.556Z,3.00
2019-03-19T14:55:09.230Z,3.30
2019-03-19T14:57:37.929Z,2.70
2019-03-19T15:00:15.185Z,2.67
2019-03-19T15:02:43.816Z,2.80
2019-03-19T15:05:13.896Z,2.97
2019-03-19T15:07:42.697Z,3.60
2019-03-19T15:10:15.737Z,2.50
2019-03-19T15:12:44.268Z,2.83
2019-03-19T15:15:13.674Z,2.70
2019-03-19T15:17:42.144Z,2.43
2019-03-19T15:20:11.853Z,2.33
2019-03-19T15:22:40.457Z,2.77
2019-03-19T15:25:09.660Z,2.57
2019-03-19T15:27:38.274Z,2.97
2019-03-19T15:30:12.733Z,8.30
2019-03-19T15:32:41.285Z,4.27
2019-03-19T15:35:11.185Z,3.37
2019-03-19T15:37:39.863Z,3.03
2019-03-19T15:40:11.548Z,3.37
2019-03-19T15:42:40.136Z,3.33
2019-03-19T15:45:11.609Z,2.70
2019-03-19T15:47:40.148Z,3.00
2019-03-19T15:50:13.643Z,2.60
2019-03-19T15:52:42.307Z,3.13
2019-03-19T15:55:12.413Z,3.20
2019-03-19T15:57:41.020Z,2.57
2019-03-19T16:00:20.340Z,2.90
2019-03-19T16:02:48.885Z,2.87
2019-03-19T16:05:17.584Z,3.23
2019-03-19T16:07:46.191Z,3.10
2019-03-19T16:10:16.135Z,2.53
2019-03-19T16:12:44.350Z,3.40
2019-03-19T16:15:15.030Z,2.90
2019-03-19T16:17:43.595Z,2.47
2019-03-19T16:20:17.155Z,2.50
2019-03-19T16:22:45.818Z,8.77
2019-03-19T16:25:14.130Z,3.40
2019-03-19T16:27:42.731Z,3.50
2019-03-19T16:30:15.418Z,4.17
2019-03-19T16:32:44.196Z,3.00
2019-03-19T16:35:13.400Z,2.63
2019-03-19T16:37:41.933Z,3.63
2019-03-19T16:40:20.851Z,2.77
2019-03-19T16:42:49.732Z,3.10
2019-03-19T16:45:18.773Z,2.97
2019-03-19T16:47:47.724Z,2.83
2019-03-19T16:50:20.356Z,4.27
2019-03-19T16:52:49.278Z,3.70
2019-03-19T16:55:21.613Z,2.50
2019-03-19T16:57:50.216Z,2.90
2019-03-19T17:00:22.721Z,3.20
2019-03-19T17:02:51.403Z,2.57
2019-03-19T17:05:20.073Z,2.90
2019-03-19T17:07:48.709Z,2.80
2019-03-19T17:10:19.089Z,2.43
2019-03-19T17:12:47.650Z,2.50
2019-03-19T17:15:17.124Z,2.87
2019-03-19T17:17:45.697Z,2.40
2019-03-19T17:20:20.663Z,2.60
2019-03-19T17:22:49.301Z,2.67
2019-03-19T17:25:22.703Z,2.30
2019-03-19T17:27:51.268Z,2.80
2019-03-19T17:30:31.206Z,2.37
2019-03-19T17:32:59.822Z,2.73
2019-03-19T17:35:28.419Z,2.80
2019-03-19T17:37:56.660Z,2.53
2019-03-19T17:40:24.868Z,2.60
2019-03-19T17:42:53.180Z,3.03
2019-03-19T17:45:21.398Z,2.30
2019-03-19T17:47:49.980Z,3.00
2019-03-19T17:50:24.083Z,3.10
2019-03-19T17:52:53.663Z,3.30
2019-03-19T17:55:22.392Z,3.23
2019-03-19T17:57:50.955Z,3.63
2019-03-19T18:00:22.376Z,3.47
2019-03-19T18:02:51.145Z,3.70
2019-03-19T18:05:19.691Z,3.40
2019-03-19T18:07:47.928Z,3.53
2019-03-19T18:10:16.608Z,4.40
2019-03-19T18:12:44.923Z,4.00
2019-03-19T18:15:17.561Z,3.30
2019-03-19T18:17:46.119Z,2.80
2019-03-19T18:20:15.603Z,2.90
2019-03-19T18:22:44.227Z,2.80
2019-03-19T18:25:20.172Z,2.77
2019-03-19T18:27:48.887Z,3.03
2019-03-19T18:30:24.902Z,2.70
2019-03-19T18:32:53.449Z,2.90
2019-03-19T18:35:22.082Z,3.20
2019-03-19T18:37:50.662Z,3.30
2019-03-19T18:40:19.888Z,3.53
2019-03-19T18:42:48.533Z,3.50
2019-03-19T18:45:20.739Z,4.13
2019-03-19T18:47:49.444Z,3.80
2019-03-19T18:50:24.391Z,3.90
2019-03-19T18:52:53.030Z,3.30
2019-03-19T18:55:21.614Z,2.90
2019-03-19T18:57:50.216Z,3.10
2019-03-19T19:00:25.092Z,2.80
2019-03-19T19:02:53.668Z,2.80
2019-03-19T19:05:25.603Z,2.90
2019-03-19T19:07:54.135Z,3.07
2019-03-19T19:10:22.773Z,3.30
2019-03-19T19:12:51.319Z,3.10
2019-03-19T19:15:21.231Z,3.80
2019-03-19T19:17:49.852Z,3.97
2019-03-19T19:20:18.453Z,4.10
2019-03-19T19:22:46.736Z,3.70
2019-03-19T19:25:22.560Z,3.70
2019-03-19T19:27:51.122Z,4.03
2019-03-19T19:30:23.504Z,4.53
2019-03-19T19:33:00.973Z,4.27
2019-03-19T19:35:22.271Z,6.83
2019-03-19T19:37:50.794Z,5.20
2019-03-19T19:40:19.595Z,5.33
2019-03-19T19:42:48.400Z,6.17
2019-03-19T19:45:18.026Z,5.50
2019-03-19T19:47:46.229Z,5.93
2019-03-19T19:50:19.975Z,5.63
2019-03-19T19:52:48.580Z,5.10
2019-03-19T19:55:17.284Z,5.57
2019-03-19T19:57:45.988Z,6.17
2019-03-19T20:00:16.864Z,7.23
2019-03-19T20:02:45.646Z,7.97
2019-03-19T20:05:13.964Z,7.70
2019-03-19T20:07:42.567Z,8.37
2019-03-19T20:10:24.912Z,6.10
2019-03-19T20:12:53.443Z,7.13
2019-03-19T20:15:22.095Z,7.50
2019-03-19T20:17:50.623Z,5.70
2019-03-19T20:20:24.116Z,6.20
2019-03-19T20:22:52.660Z,6.27
2019-03-19T20:25:21.298Z,5.87
2019-03-19T20:27:49.908Z,5.57
2019-03-19T20:30:20.583Z,5.57
2019-03-19T20:32:49.130Z,4.47
2019-03-19T20:35:17.874Z,4.03
2019-03-19T20:37:46.092Z,4.23
2019-03-19T20:40:15.596Z,4.27
2019-03-19T20:42:44.370Z,4.30
2019-03-19T20:45:16.012Z,4.60
2019-03-19T20:47:44.294Z,4.70
2019-03-19T20:50:15.778Z,4.50
2019-03-19T20:52:44.312Z,4.80
2019-03-19T20:55:12.989Z,5.57
2019-03-19T20:57:41.560Z,5.63
2019-03-19T21:00:15.448Z,5.47
2019-03-19T21:02:44.461Z,5.93
2019-03-19T21:05:13.142Z,5.70
2019-03-19T21:07:41.718Z,5.87
2019-03-19T21:10:26.481Z,7.10
2019-03-19T21:12:55.185Z,7.80
2019-03-19T21:15:26.851Z,9.13
2019-03-19T21:17:55.503Z,15.07
2019-03-19T21:20:24.117Z,18.80
2019-03-19T21:22:52.751Z,15.20
2019-03-19T21:25:20.966Z,11.77
2019-03-19T21:27:49.277Z,7.70
2019-03-19T21:30:23.752Z,7.27
2019-03-19T21:32:51.993Z,7.33
2019-03-19T21:35:20.784Z,6.77
2019-03-19T21:37:49.084Z,6.70
2019-03-19T21:40:17.369Z,6.67
2019-03-19T21:42:46.016Z,7.43
2019-03-19T21:45:16.091Z,7.00
2019-03-19T21:47:44.799Z,6.97
2019-03-19T21:50:15.177Z,7.57
2019-03-19T21:52:43.493Z,8.03
2019-03-19T21:55:14.164Z,7.60
2019-03-19T21:57:42.717Z,7.13
2019-03-19T22:00:22.679Z,7.47
2019-03-19T22:02:50.916Z,6.83
2019-03-19T22:05:19.128Z,7.43
2019-03-19T22:07:47.723Z,7.00
2019-03-19T22:10:20.630Z,6.90
2019-03-19T22:12:49.678Z,6.67
2019-03-19T22:15:22.396Z,7.07
2019-03-19T22:17:50.635Z,7.23
2019-03-19T22:20:19.024Z,7.60
2019-03-19T22:22:47.342Z,7.20
2019-03-19T22:25:15.728Z,7.57
2019-03-19T22:27:44.079Z,7.97
2019-03-19T22:30:13.386Z,8.13
2019-03-19T22:32:41.696Z,7.30
2019-03-19T22:35:10.171Z,7.30
2019-03-19T22:37:38.345Z,7.73
2019-03-19T22:40:08.129Z,7.10
2019-03-19T22:42:36.417Z,7.23
2019-03-19T22:45:06.236Z,7.80
2019-03-19T22:47:34.444Z,7.87
2019-03-19T22:50:02.756Z,7.17
2019-03-19T22:52:30.968Z,7.20
2019-03-19T22:54:59.211Z,7.50
2019-03-19T22:57:27.461Z,7.13
2019-03-19T22:59:55.746Z,6.97
2019-03-19T23:02:24.168Z,7.43
2019-03-19T23:04:52.437Z,6.83
2019-03-19T23:07:20.647Z,7.03
2019-03-19T23:09:48.929Z,6.73
2019-03-19T23:12:17.135Z,6.50
2019-03-19T23:14:45.389Z,6.17
2019-03-19T23:17:13.668Z,6.60
2019-03-19T23:19:41.911Z,6.50
2019-03-19T23:22:10.125Z,7.00
2019-03-19T23:24:38.371Z,7.07
2019-03-19T23:27:06.578Z,7.23
2019-03-19T23:29:34.825Z,7.13
2019-03-19T23:32:03.079Z,7.40
2019-03-19T23:34:38.578Z,6.70
2019-03-19T23:37:01.208Z,6.10
2019-03-19T23:39:29.447Z,6.80
2019-03-19T23:41:57.707Z,7.13
2019-03-19T23:44:25.939Z,7.23
2019-03-19T23:46:54.160Z,6.73
2019-03-19T23:49:22.407Z,6.60
2019-03-19T23:51:50.625Z,6.87
2019-03-19T23:54:18.936Z,6.80
2019-03-19T23:56:47.157Z,6.83
2019-03-19T23:59:15.363Z,6.87
